Mobile, AL (36607)

8:16 PM CDT on April 25, 2015 (GMT -0500)
Westlawn | | Change Station
CLOSE
Current Station
Personal Weather Station
Location: Mobile, AL
Elevation: 43 ft
Nearby Weather Stations

Elev 43 ft 30.68 °N, 88.12 °W | Updated 4 minutes ago

Mostly Cloudy
Mostly Cloudy
70.2 °F
Feels Like 70.2 °F
N
0.0
Wind Variable Wind from NW
Gusts 1.0 mph

Today
High -- | Low -- °F
--% Chance of Precip.
Yesterday
High -- | Low -- °F
Precip. -- in
6:14 AM 7:26 PM
Waxing Crescent, 50% visible
Pressure 29.73 in
Visibility 10.0 miles
Clouds Clear
Dew Point 69 °F
Humidity 95%
Rainfall 0.47 in
Snow Depth Not available.
UV 0 out of 12
Pollen 5.20 out of 12
Air Quality Not available.
Flu Activity No Activity
METAR KBFM 260053Z AUTO 00000KT 10SM CLR 21/19 A2973 RMK AO2 SLP066 T02060194

More Conditions Fewer Conditions

Pressure 29.73 in
Visibility 10.0 miles
Clouds Clear
Dew Point 69 °F
Humidity 95%
Rainfall 0.47 in
Snow Depth Not available.
UV 0 out of 12
Pollen 5.20 out of 12
Air Quality Not available.
Flu Activity No Activity
METAR KBFM 260053Z AUTO 00000KT 10SM CLR 21/19 A2973 RMK AO2 SLP066 T02060194

More Conditions Fewer Conditions

10-Day Weather Forecast

Almanac

Astronomy

Apr. 25, 2015 Rise Set
Actual Time
Civil Twilight
Nautical Twilight
Astronomical Twilight
Moon
Length of Visible Light
Length of Day
Tomorrow will be .
, % of the Moon is Illuminated

Today's Extremes

State Highs State Lows

Community

WunderPhotos

Upload Photos

1,816,878 photos uploaded!

WunderBlogs® & News

Nearby

Air Quality

  Air Quality AQ Index Pollutant
Not available.

Snow Depth

Station Depth Elevation

Earthquake Activity

City Distance Mag. Time & Date
Minimum magnitude displayed is 2.5.

Coastal Water Temperatures

Place Temperature

Stations

Nearby Weather Stations

Station Location Temp. Windchill Dew Point Humidity Wind Precip. Elev Updated Type